sensor_id;sensor_type;location;lat;lon;timestamp;temperature;humidity
20091;DHT22;10205;49.678;6.560;2022-07-18T00:01:07;29.80;27.20
20091;DHT22;10205;49.678;6.560;2022-07-18T00:03:34;29.70;27.30
20091;DHT22;10205;49.678;6.560;2022-07-18T00:06:01;29.70;27.40
20091;DHT22;10205;49.678;6.560;2022-07-18T00:08:29;29.60;27.30
20091;DHT22;10205;49.678;6.560;2022-07-18T00:10:57;29.50;27.40
20091;DHT22;10205;49.678;6.560;2022-07-18T00:13:24;29.50;27.50
20091;DHT22;10205;49.678;6.560;2022-07-18T00:15:51;29.50;27.50
20091;DHT22;10205;49.678;6.560;2022-07-18T00:18:19;29.40;27.60
20091;DHT22;10205;49.678;6.560;2022-07-18T00:20:46;29.30;27.60
20091;DHT22;10205;49.678;6.560;2022-07-18T00:23:13;29.30;27.70
20091;DHT22;10205;49.678;6.560;2022-07-18T00:25:40;29.20;27.70
20091;DHT22;10205;49.678;6.560;2022-07-18T00:28:09;29.10;27.70
20091;DHT22;10205;49.678;6.560;2022-07-18T00:30:37;29.10;27.80
20091;DHT22;10205;49.678;6.560;2022-07-18T00:33:04;29.00;27.90
20091;DHT22;10205;49.678;6.560;2022-07-18T00:35:31;29.00;28.00
20091;DHT22;10205;49.678;6.560;2022-07-18T00:37:59;28.90;28.00
20091;DHT22;10205;49.678;6.560;2022-07-18T00:40:27;28.80;28.10
20091;DHT22;10205;49.678;6.560;2022-07-18T00:42:55;28.80;28.20
20091;DHT22;10205;49.678;6.560;2022-07-18T00:45:24;28.70;28.10
20091;DHT22;10205;49.678;6.560;2022-07-18T00:47:52;28.70;28.20
20091;DHT22;10205;49.678;6.560;2022-07-18T00:50:19;28.60;28.20
20091;DHT22;10205;49.678;6.560;2022-07-18T00:52:47;28.60;28.30
20091;DHT22;10205;49.678;6.560;2022-07-18T00:55:15;28.50;28.40
20091;DHT22;10205;49.678;6.560;2022-07-18T00:57:42;28.50;28.50
20091;DHT22;10205;49.678;6.560;2022-07-18T01:00:12;28.40;28.50
20091;DHT22;10205;49.678;6.560;2022-07-18T01:03:00;28.30;28.60
20091;DHT22;10205;49.678;6.560;2022-07-18T01:05:28;28.20;28.60
20091;DHT22;10205;49.678;6.560;2022-07-18T01:07:55;28.20;28.60
20091;DHT22;10205;49.678;6.560;2022-07-18T01:10:23;28.10;28.70
20091;DHT22;10205;49.678;6.560;2022-07-18T01:12:50;28.10;28.80
20091;DHT22;10205;49.678;6.560;2022-07-18T01:15:17;28.00;28.70
20091;DHT22;10205;49.678;6.560;2022-07-18T01:17:44;28.00;28.80
20091;DHT22;10205;49.678;6.560;2022-07-18T01:20:13;27.90;29.30
20091;DHT22;10205;49.678;6.560;2022-07-18T01:22:41;27.90;29.00
20091;DHT22;10205;49.678;6.560;2022-07-18T01:25:10;27.80;29.00
20091;DHT22;10205;49.678;6.560;2022-07-18T01:27:38;27.70;29.00
20091;DHT22;10205;49.678;6.560;2022-07-18T01:30:07;27.70;29.10
20091;DHT22;10205;49.678;6.560;2022-07-18T01:32:35;27.60;29.10
20091;DHT22;10205;49.678;6.560;2022-07-18T01:35:05;27.60;29.20
20091;DHT22;10205;49.678;6.560;2022-07-18T01:37:32;27.60;29.30
20091;DHT22;10205;49.678;6.560;2022-07-18T01:40:01;27.50;29.80
20091;DHT22;10205;49.678;6.560;2022-07-18T01:42:28;27.50;29.40
20091;DHT22;10205;49.678;6.560;2022-07-18T01:44:55;27.40;29.40
20091;DHT22;10205;49.678;6.560;2022-07-18T01:47:22;27.30;29.40
20091;DHT22;10205;49.678;6.560;2022-07-18T01:49:49;27.30;29.40
20091;DHT22;10205;49.678;6.560;2022-07-18T01:52:16;27.20;29.40
20091;DHT22;10205;49.678;6.560;2022-07-18T01:54:44;27.20;29.60
20091;DHT22;10205;49.678;6.560;2022-07-18T01:57:12;27.10;29.60
20091;DHT22;10205;49.678;6.560;2022-07-18T01:59:39;27.10;30.20
20091;DHT22;10205;49.678;6.560;2022-07-18T02:02:06;27.00;29.70
20091;DHT22;10205;49.678;6.560;2022-07-18T02:04:34;27.00;29.70
20091;DHT22;10205;49.678;6.560;2022-07-18T02:07:21;26.90;29.80
20091;DHT22;10205;49.678;6.560;2022-07-18T02:09:48;26.90;29.80
20091;DHT22;10205;49.678;6.560;2022-07-18T02:12:17;26.80;29.90
20091;DHT22;10205;49.678;6.560;2022-07-18T02:14:44;26.80;30.00
20091;DHT22;10205;49.678;6.560;2022-07-18T02:17:12;26.70;29.90
20091;DHT22;10205;49.678;6.560;2022-07-18T02:19:39;26.60;30.00
20091;DHT22;10205;49.678;6.560;2022-07-18T02:22:06;26.60;30.00
20091;DHT22;10205;49.678;6.560;2022-07-18T02:24:33;26.50;30.00
20091;DHT22;10205;49.678;6.560;2022-07-18T02:27:00;26.50;30.20
20091;DHT22;10205;49.678;6.560;2022-07-18T02:29:29;26.50;30.10
20091;DHT22;10205;49.678;6.560;2022-07-18T02:31:57;26.40;30.30
20091;DHT22;10205;49.678;6.560;2022-07-18T02:34:24;26.40;30.50
20091;DHT22;10205;49.678;6.560;2022-07-18T02:36:52;26.30;30.40
20091;DHT22;10205;49.678;6.560;2022-07-18T02:39:19;26.30;30.50
20091;DHT22;10205;49.678;6.560;2022-07-18T02:41:47;26.20;30.40
20091;DHT22;10205;49.678;6.560;2022-07-18T02:44:14;26.20;30.70
20091;DHT22;10205;49.678;6.560;2022-07-18T02:46:42;26.10;30.70
20091;DHT22;10205;49.678;6.560;2022-07-18T02:49:10;26.00;30.80
20091;DHT22;10205;49.678;6.560;2022-07-18T02:51:52;26.00;30.90
20091;DHT22;10205;49.678;6.560;2022-07-18T02:54:20;26.00;30.90
20091;DHT22;10205;49.678;6.560;2022-07-18T02:56:48;25.90;31.00
20091;DHT22;10205;49.678;6.560;2022-07-18T02:59:15;25.90;31.00
20091;DHT22;10205;49.678;6.560;2022-07-18T03:01:44;25.80;31.10
20091;DHT22;10205;49.678;6.560;2022-07-18T03:04:11;25.70;31.30
20091;DHT22;10205;49.678;6.560;2022-07-18T03:06:38;25.70;31.20
20091;DHT22;10205;49.678;6.560;2022-07-18T03:09:05;25.70;31.40
20091;DHT22;10205;49.678;6.560;2022-07-18T03:11:32;25.60;31.40
20091;DHT22;10205;49.678;6.560;2022-07-18T03:13:59;25.60;31.50
20091;DHT22;10205;49.678;6.560;2022-07-18T03:16:27;25.50;31.60
20091;DHT22;10205;49.678;6.560;2022-07-18T03:18:55;25.50;31.70
20091;DHT22;10205;49.678;6.560;2022-07-18T03:21:22;25.40;31.70
20091;DHT22;10205;49.678;6.560;2022-07-18T03:23:50;25.40;31.60
20091;DHT22;10205;49.678;6.560;2022-07-18T03:26:17;25.30;31.80
20091;DHT22;10205;49.678;6.560;2022-07-18T03:28:44;25.30;32.00
20091;DHT22;10205;49.678;6.560;2022-07-18T03:31:11;25.30;32.10
20091;DHT22;10205;49.678;6.560;2022-07-18T03:33:38;25.20;32.00
20091;DHT22;10205;49.678;6.560;2022-07-18T03:36:07;25.10;32.10
20091;DHT22;10205;49.678;6.560;2022-07-18T03:38:35;25.10;32.20
20091;DHT22;10205;49.678;6.560;2022-07-18T03:41:02;25.10;32.30
20091;DHT22;10205;49.678;6.560;2022-07-18T03:43:30;25.00;32.40
20091;DHT22;10205;49.678;6.560;2022-07-18T03:45:57;25.00;32.50
20091;DHT22;10205;49.678;6.560;2022-07-18T03:48:24;24.90;32.60
20091;DHT22;10205;49.678;6.560;2022-07-18T03:50:51;24.90;32.60
20091;DHT22;10205;49.678;6.560;2022-07-18T03:53:20;24.80;32.80
20091;DHT22;10205;49.678;6.560;2022-07-18T03:55:47;24.80;32.80
20091;DHT22;10205;49.678;6.560;2022-07-18T03:58:14;24.80;32.70
20091;DHT22;10205;49.678;6.560;2022-07-18T04:00:41;24.70;32.70
20091;DHT22;10205;49.678;6.560;2022-07-18T04:03:08;24.70;32.80
20091;DHT22;10205;49.678;6.560;2022-07-18T04:05:36;24.60;32.90
20091;DHT22;10205;49.678;6.560;2022-07-18T04:08:03;24.60;32.80
20091;DHT22;10205;49.678;6.560;2022-07-18T04:10:32;24.60;32.80
20091;DHT22;10205;49.678;6.560;2022-07-18T04:12:59;24.50;33.10
20091;DHT22;10205;49.678;6.560;2022-07-18T04:15:26;24.50;33.10
20091;DHT22;10205;49.678;6.560;2022-07-18T04:17:53;24.40;33.00
20091;DHT22;10205;49.678;6.560;2022-07-18T04:20:21;24.40;33.30
20091;DHT22;10205;49.678;6.560;2022-07-18T04:22:50;24.30;33.30
20091;DHT22;10205;49.678;6.560;2022-07-18T04:25:20;24.30;33.30
20091;DHT22;10205;49.678;6.560;2022-07-18T04:27:49;24.20;33.40
20091;DHT22;10205;49.678;6.560;2022-07-18T04:30:18;24.20;33.30
20091;DHT22;10205;49.678;6.560;2022-07-18T04:32:48;24.20;33.50
20091;DHT22;10205;49.678;6.560;2022-07-18T04:35:16;24.10;33.50
20091;DHT22;10205;49.678;6.560;2022-07-18T04:37:44;24.10;33.80
20091;DHT22;10205;49.678;6.560;2022-07-18T04:40:11;24.10;33.80
20091;DHT22;10205;49.678;6.560;2022-07-18T04:42:39;24.00;33.80
20091;DHT22;10205;49.678;6.560;2022-07-18T04:45:08;24.00;33.70
20091;DHT22;10205;49.678;6.560;2022-07-18T04:47:36;23.90;34.00
20091;DHT22;10205;49.678;6.560;2022-07-18T04:50:04;23.90;33.80
20091;DHT22;10205;49.678;6.560;2022-07-18T04:52:36;23.90;34.70
20091;DHT22;10205;49.678;6.560;2022-07-18T04:55:05;23.80;34.20
20091;DHT22;10205;49.678;6.560;2022-07-18T04:57:34;23.80;34.20
20091;DHT22;10205;49.678;6.560;2022-07-18T05:00:03;23.80;34.20
20091;DHT22;10205;49.678;6.560;2022-07-18T05:02:33;23.70;34.50
20091;DHT22;10205;49.678;6.560;2022-07-18T05:05:00;23.70;34.40
20091;DHT22;10205;49.678;6.560;2022-07-18T05:07:27;23.70;34.30
20091;DHT22;10205;49.678;6.560;2022-07-18T05:09:54;23.60;34.50
20091;DHT22;10205;49.678;6.560;2022-07-18T05:12:21;23.60;34.50
20091;DHT22;10205;49.678;6.560;2022-07-18T05:14:49;23.50;34.40
20091;DHT22;10205;49.678;6.560;2022-07-18T05:17:17;23.50;34.50
20091;DHT22;10205;49.678;6.560;2022-07-18T05:19:45;23.50;34.60
20091;DHT22;10205;49.678;6.560;2022-07-18T05:22:12;23.50;34.70
20091;DHT22;10205;49.678;6.560;2022-07-18T05:24:39;23.40;34.70
20091;DHT22;10205;49.678;6.560;2022-07-18T05:27:06;23.40;34.70
20091;DHT22;10205;49.678;6.560;2022-07-18T05:29:34;23.40;34.80
20091;DHT22;10205;49.678;6.560;2022-07-18T05:32:02;23.30;34.90
20091;DHT22;10205;49.678;6.560;2022-07-18T05:34:29;23.30;35.00
20091;DHT22;10205;49.678;6.560;2022-07-18T05:36:58;23.30;35.00
20091;DHT22;10205;49.678;6.560;2022-07-18T05:39:25;23.20;35.00
20091;DHT22;10205;49.678;6.560;2022-07-18T05:41:52;23.30;35.00
20091;DHT22;10205;49.678;6.560;2022-07-18T05:44:19;23.20;35.00
20091;DHT22;10205;49.678;6.560;2022-07-18T05:46:47;23.10;35.10
20091;DHT22;10205;49.678;6.560;2022-07-18T05:49:14;23.10;35.20
20091;DHT22;10205;49.678;6.560;2022-07-18T05:51:42;23.10;35.20
20091;DHT22;10205;49.678;6.560;2022-07-18T05:54:10;23.10;35.40
20091;DHT22;10205;49.678;6.560;2022-07-18T05:56:38;23.00;35.50
20091;DHT22;10205;49.678;6.560;2022-07-18T05:59:05;23.00;35.40
20091;DHT22;10205;49.678;6.560;2022-07-18T06:01:32;23.00;35.50
20091;DHT22;10205;49.678;6.560;2022-07-18T06:03:59;23.00;35.50
20091;DHT22;10205;49.678;6.560;2022-07-18T06:06:26;23.00;36.00
20091;DHT22;10205;49.678;6.560;2022-07-18T06:08:54;22.90;36.20
20091;DHT22;10205;49.678;6.560;2022-07-18T06:11:23;22.90;36.50
20091;DHT22;10205;49.678;6.560;2022-07-18T06:13:50;22.90;36.50
20091;DHT22;10205;49.678;6.560;2022-07-18T06:16:17;22.90;36.20
20091;DHT22;10205;49.678;6.560;2022-07-18T06:18:44;22.80;36.70
20091;DHT22;10205;49.678;6.560;2022-07-18T06:21:11;22.80;37.60
20091;DHT22;10205;49.678;6.560;2022-07-18T06:23:39;22.80;37.90
20091;DHT22;10205;49.678;6.560;2022-07-18T06:26:06;22.80;37.60
20091;DHT22;10205;49.678;6.560;2022-07-18T06:28:35;22.70;37.70
20091;DHT22;10205;49.678;6.560;2022-07-18T06:31:02;22.80;37.60
20091;DHT22;10205;49.678;6.560;2022-07-18T06:33:30;22.80;37.80
20091;DHT22;10205;49.678;6.560;2022-07-18T06:35:57;22.80;37.60
20091;DHT22;10205;49.678;6.560;2022-07-18T06:38:25;22.70;37.70
20091;DHT22;10205;49.678;6.560;2022-07-18T06:40:52;22.70;37.70
20091;DHT22;10205;49.678;6.560;2022-07-18T06:43:19;22.70;37.80
20091;DHT22;10205;49.678;6.560;2022-07-18T06:45:48;22.70;37.80
20091;DHT22;10205;49.678;6.560;2022-07-18T06:48:18;22.80;38.30
20091;DHT22;10205;49.678;6.560;2022-07-18T06:50:45;22.70;38.00
20091;DHT22;10205;49.678;6.560;2022-07-18T06:53:12;22.70;38.00
20091;DHT22;10205;49.678;6.560;2022-07-18T06:55:39;22.70;37.70
20091;DHT22;10205;49.678;6.560;2022-07-18T06:58:06;22.80;37.80
20091;DHT22;10205;49.678;6.560;2022-07-18T07:00:35;22.80;38.00
20091;DHT22;10205;49.678;6.560;2022-07-18T07:03:03;22.80;38.00
20091;DHT22;10205;49.678;6.560;2022-07-18T07:05:31;22.90;38.70
20091;DHT22;10205;49.678;6.560;2022-07-18T07:07:58;22.90;38.00
20091;DHT22;10205;49.678;6.560;2022-07-18T07:10:26;22.90;38.00
20091;DHT22;10205;49.678;6.560;2022-07-18T07:12:53;23.00;38.20
20091;DHT22;10205;49.678;6.560;2022-07-18T07:15:21;23.00;38.40
20091;DHT22;10205;49.678;6.560;2022-07-18T07:17:50;23.00;37.90
20091;DHT22;10205;49.678;6.560;2022-07-18T07:20:19;23.10;38.00
20091;DHT22;10205;49.678;6.560;2022-07-18T07:22:49;23.10;38.00
20091;DHT22;10205;49.678;6.560;2022-07-18T07:25:19;23.20;37.80
20091;DHT22;10205;49.678;6.560;2022-07-18T07:27:49;23.30;37.70
20091;DHT22;10205;49.678;6.560;2022-07-18T07:30:17;23.30;37.40
20091;DHT22;10205;49.678;6.560;2022-07-18T07:32:45;23.40;37.50
20091;DHT22;10205;49.678;6.560;2022-07-18T07:35:14;23.40;37.40
20091;DHT22;10205;49.678;6.560;2022-07-18T07:37:45;23.50;37.40
20091;DHT22;10205;49.678;6.560;2022-07-18T07:40:15;23.60;37.30
20091;DHT22;10205;49.678;6.560;2022-07-18T07:42:43;23.60;37.20
20091;DHT22;10205;49.678;6.560;2022-07-18T07:45:11;23.70;37.20
20091;DHT22;10205;49.678;6.560;2022-07-18T07:47:40;23.80;37.10
20091;DHT22;10205;49.678;6.560;2022-07-18T07:50:09;23.90;36.90
20091;DHT22;10205;49.678;6.560;2022-07-18T07:52:38;24.00;36.90
20091;DHT22;10205;49.678;6.560;2022-07-18T07:55:07;24.00;36.70
20091;DHT22;10205;49.678;6.560;2022-07-18T07:57:35;24.10;36.70
20091;DHT22;10205;49.678;6.560;2022-07-18T08:00:05;24.20;36.50
20091;DHT22;10205;49.678;6.560;2022-07-18T08:02:34;24.20;36.20
20091;DHT22;10205;49.678;6.560;2022-07-18T08:05:02;24.30;36.20
20091;DHT22;10205;49.678;6.560;2022-07-18T08:07:30;24.40;35.90
20091;DHT22;10205;49.678;6.560;2022-07-18T08:09:57;24.50;35.70
20091;DHT22;10205;49.678;6.560;2022-07-18T08:12:25;24.60;35.60
20091;DHT22;10205;49.678;6.560;2022-07-18T08:14:52;24.70;35.40
20091;DHT22;10205;49.678;6.560;2022-07-18T08:17:19;24.80;35.40
20091;DHT22;10205;49.678;6.560;2022-07-18T08:19:46;24.80;35.20
20091;DHT22;10205;49.678;6.560;2022-07-18T08:22:13;24.90;35.20
20091;DHT22;10205;49.678;6.560;2022-07-18T08:24:41;25.00;35.30
20091;DHT22;10205;49.678;6.560;2022-07-18T08:27:08;25.10;35.30
20091;DHT22;10205;49.678;6.560;2022-07-18T08:29:38;25.20;35.20
20091;DHT22;10205;49.678;6.560;2022-07-18T08:32:05;25.30;35.30
20091;DHT22;10205;49.678;6.560;2022-07-18T08:34:32;25.40;35.20
20091;DHT22;10205;49.678;6.560;2022-07-18T08:36:59;25.60;35.30
20091;DHT22;10205;49.678;6.560;2022-07-18T08:39:26;25.60;34.80
20091;DHT22;10205;49.678;6.560;2022-07-18T08:41:54;25.70;34.50
20091;DHT22;10205;49.678;6.560;2022-07-18T08:44:22;25.80;34.70
20091;DHT22;10205;49.678;6.560;2022-07-18T08:46:52;25.90;34.00
20091;DHT22;10205;49.678;6.560;2022-07-18T08:49:21;26.00;33.90
20091;DHT22;10205;49.678;6.560;2022-07-18T08:51:49;26.20;34.00
20091;DHT22;10205;49.678;6.560;2022-07-18T08:54:18;26.30;33.40
20091;DHT22;10205;49.678;6.560;2022-07-18T08:56:45;26.40;33.60
20091;DHT22;10205;49.678;6.560;2022-07-18T08:59:12;26.50;33.30
20091;DHT22;10205;49.678;6.560;2022-07-18T09:01:39;26.60;33.80
20091;DHT22;10205;49.678;6.560;2022-07-18T09:04:08;26.70;33.40
20091;DHT22;10205;49.678;6.560;2022-07-18T09:06:46;26.90;33.30
20091;DHT22;10205;49.678;6.560;2022-07-18T09:09:16;27.00;32.90
20091;DHT22;10205;49.678;6.560;2022-07-18T09:11:52;27.10;32.70
20091;DHT22;10205;49.678;6.560;2022-07-18T09:14:28;27.20;32.60
20091;DHT22;10205;49.678;6.560;2022-07-18T09:17:05;27.30;32.10
20091;DHT22;10205;49.678;6.560;2022-07-18T09:19:36;27.50;32.20
20091;DHT22;10205;49.678;6.560;2022-07-18T09:22:19;27.60;32.10
20091;DHT22;10205;49.678;6.560;2022-07-18T09:24:53;27.70;31.90
20091;DHT22;10205;49.678;6.560;2022-07-18T09:27:30;27.90;30.70
20091;DHT22;10205;49.678;6.560;2022-07-18T09:30:18;28.00;30.80
20091;DHT22;10205;49.678;6.560;2022-07-18T09:32:53;28.10;30.60
20091;DHT22;10205;49.678;6.560;2022-07-18T09:35:27;28.30;31.30
20091;DHT22;10205;49.678;6.560;2022-07-18T09:37:58;28.40;30.50
20091;DHT22;10205;49.678;6.560;2022-07-18T09:40:29;28.50;30.30
20091;DHT22;10205;49.678;6.560;2022-07-18T09:43:00;28.60;30.40
20091;DHT22;10205;49.678;6.560;2022-07-18T09:45:32;28.70;30.30
20091;DHT22;10205;49.678;6.560;2022-07-18T09:48:01;28.80;29.90
20091;DHT22;10205;49.678;6.560;2022-07-18T09:50:33;29.00;29.90
20091;DHT22;10205;49.678;6.560;2022-07-18T09:53:16;29.10;29.90
20091;DHT22;10205;49.678;6.560;2022-07-18T09:55:46;29.20;29.40
20091;DHT22;10205;49.678;6.560;2022-07-18T09:58:18;29.40;28.80
20091;DHT22;10205;49.678;6.560;2022-07-18T10:00:47;29.50;28.70
20091;DHT22;10205;49.678;6.560;2022-07-18T10:03:17;29.60;29.20
20091;DHT22;10205;49.678;6.560;2022-07-18T10:05:47;29.80;28.60
20091;DHT22;10205;49.678;6.560;2022-07-18T10:08:17;29.90;27.90
20091;DHT22;10205;49.678;6.560;2022-07-18T10:10:49;30.10;28.00
20091;DHT22;10205;49.678;6.560;2022-07-18T10:13:18;30.20;28.00
20091;DHT22;10205;49.678;6.560;2022-07-18T10:15:48;30.30;28.00
20091;DHT22;10205;49.678;6.560;2022-07-18T10:18:17;30.50;27.40
20091;DHT22;10205;49.678;6.560;2022-07-18T10:20:52;30.60;28.10
20091;DHT22;10205;49.678;6.560;2022-07-18T10:23:24;30.70;27.30
20091;DHT22;10205;49.678;6.560;2022-07-18T10:26:13;30.80;27.20
20091;DHT22;10205;49.678;6.560;2022-07-18T10:29:10;31.00;26.60
20091;DHT22;10205;49.678;6.560;2022-07-18T10:32:02;31.10;27.10
20091;DHT22;10205;49.678;6.560;2022-07-18T10:34:33;31.20;26.50
20091;DHT22;10205;49.678;6.560;2022-07-18T10:37:12;31.40;26.60
20091;DHT22;10205;49.678;6.560;2022-07-18T10:39:41;31.50;25.80
20091;DHT22;10205;49.678;6.560;2022-07-18T10:42:14;31.60;26.10
20091;DHT22;10205;49.678;6.560;2022-07-18T10:44:46;31.70;26.10
20091;DHT22;10205;49.678;6.560;2022-07-18T10:47:16;31.90;26.90
20091;DHT22;10205;49.678;6.560;2022-07-18T10:50:08;32.00;26.10
20091;DHT22;10205;49.678;6.560;2022-07-18T10:52:59;32.20;25.20
20091;DHT22;10205;49.678;6.560;2022-07-18T10:55:30;32.20;25.80
20091;DHT22;10205;49.678;6.560;2022-07-18T10:58:21;32.40;26.60
20091;DHT22;10205;49.678;6.560;2022-07-18T11:00:54;32.60;26.50
20091;DHT22;10205;49.678;6.560;2022-07-18T11:03:29;32.60;25.50
20091;DHT22;10205;49.678;6.560;2022-07-18T11:05:57;32.70;25.50
20091;DHT22;10205;49.678;6.560;2022-07-18T11:08:26;32.80;25.20
20091;DHT22;10205;49.678;6.560;2022-07-18T11:11:11;33.00;25.10
20091;DHT22;10205;49.678;6.560;2022-07-18T11:13:43;33.10;25.10
20091;DHT22;10205;49.678;6.560;2022-07-18T11:16:17;33.20;25.00
20091;DHT22;10205;49.678;6.560;2022-07-18T11:19:15;33.30;25.00
20091;DHT22;10205;49.678;6.560;2022-07-18T11:21:55;33.40;24.70
20091;DHT22;10205;49.678;6.560;2022-07-18T11:24:24;33.50;24.60
20091;DHT22;10205;49.678;6.560;2022-07-18T11:26:56;33.60;25.30
20091;DHT22;10205;49.678;6.560;2022-07-18T11:29:24;33.80;24.50
20091;DHT22;10205;49.678;6.560;2022-07-18T11:31:52;33.90;25.50
20091;DHT22;10205;49.678;6.560;2022-07-18T11:34:24;34.00;24.70
20091;DHT22;10205;49.678;6.560;2022-07-18T11:36:52;34.10;24.90
20091;DHT22;10205;49.678;6.560;2022-07-18T11:39:29;34.20;24.70
20091;DHT22;10205;49.678;6.560;2022-07-18T11:41:57;34.30;23.50
20091;DHT22;10205;49.678;6.560;2022-07-18T11:44:27;34.40;23.50
20091;DHT22;10205;49.678;6.560;2022-07-18T11:47:05;34.50;23.10
20091;DHT22;10205;49.678;6.560;2022-07-18T11:49:34;34.60;23.20
20091;DHT22;10205;49.678;6.560;2022-07-18T11:52:02;34.70;22.90
20091;DHT22;10205;49.678;6.560;2022-07-18T11:54:31;34.80;23.70
20091;DHT22;10205;49.678;6.560;2022-07-18T11:56:59;34.90;23.10
20091;DHT22;10205;49.678;6.560;2022-07-18T11:59:38;35.00;23.20
20091;DHT22;10205;49.678;6.560;2022-07-18T12:02:07;35.10;22.40
20091;DHT22;10205;49.678;6.560;2022-07-18T12:04:35;35.20;23.20
20091;DHT22;10205;49.678;6.560;2022-07-18T12:07:13;35.30;22.80
20091;DHT22;10205;49.678;6.560;2022-07-18T12:09:49;35.40;22.20
20091;DHT22;10205;49.678;6.560;2022-07-18T12:12:19;35.50;22.50
20091;DHT22;10205;49.678;6.560;2022-07-18T12:14:57;35.60;21.60
20091;DHT22;10205;49.678;6.560;2022-07-18T12:17:26;35.70;22.40
20091;DHT22;10205;49.678;6.560;2022-07-18T12:20:09;35.80;23.00
20091;DHT22;10205;49.678;6.560;2022-07-18T12:23:08;35.90;23.30
20091;DHT22;10205;49.678;6.560;2022-07-18T12:25:40;36.00;22.40
20091;DHT22;10205;49.678;6.560;2022-07-18T12:28:14;36.10;22.80
20091;DHT22;10205;49.678;6.560;2022-07-18T12:30:42;36.20;22.30
20091;DHT22;10205;49.678;6.560;2022-07-18T12:33:10;36.30;22.10
20091;DHT22;10205;49.678;6.560;2022-07-18T12:35:38;36.50;21.60
20091;DHT22;10205;49.678;6.560;2022-07-18T12:38:08;36.50;22.00
20091;DHT22;10205;49.678;6.560;2022-07-18T12:40:43;36.60;21.70
20091;DHT22;10205;49.678;6.560;2022-07-18T12:43:13;36.70;21.60
20091;DHT22;10205;49.678;6.560;2022-07-18T12:45:42;36.80;21.50
20091;DHT22;10205;49.678;6.560;2022-07-18T12:48:11;36.90;21.30
20091;DHT22;10205;49.678;6.560;2022-07-18T12:50:40;37.00;21.20
20091;DHT22;10205;49.678;6.560;2022-07-18T12:53:08;37.00;20.90
20091;DHT22;10205;49.678;6.560;2022-07-18T12:55:36;37.10;20.80
20091;DHT22;10205;49.678;6.560;2022-07-18T12:58:07;37.20;21.80
20091;DHT22;10205;49.678;6.560;2022-07-18T13:00:35;37.30;21.10
20091;DHT22;10205;49.678;6.560;2022-07-18T13:03:02;37.40;21.00
20091;DHT22;10205;49.678;6.560;2022-07-18T13:05:30;37.50;20.90
20091;DHT22;10205;49.678;6.560;2022-07-18T13:07:59;37.50;20.70
20091;DHT22;10205;49.678;6.560;2022-07-18T13:10:26;37.60;20.90
20091;DHT22;10205;49.678;6.560;2022-07-18T13:12:56;37.60;20.40
20091;DHT22;10205;49.678;6.560;2022-07-18T13:15:24;37.70;20.30
20091;DHT22;10205;49.678;6.560;2022-07-18T13:17:52;37.80;20.30
20091;DHT22;10205;49.678;6.560;2022-07-18T13:20:19;37.90;21.10
20091;DHT22;10205;49.678;6.560;2022-07-18T13:22:46;37.90;20.70
20091;DHT22;10205;49.678;6.560;2022-07-18T13:25:13;38.00;20.20
20091;DHT22;10205;49.678;6.560;2022-07-18T13:27:42;38.10;20.10
20091;DHT22;10205;49.678;6.560;2022-07-18T13:30:10;38.10;20.10
20091;DHT22;10205;49.678;6.560;2022-07-18T13:32:39;38.20;19.80
20091;DHT22;10205;49.678;6.560;2022-07-18T13:35:11;38.30;19.40
20091;DHT22;10205;49.678;6.560;2022-07-18T13:37:38;38.40;19.90
20091;DHT22;10205;49.678;6.560;2022-07-18T13:40:07;38.40;19.80
20091;DHT22;10205;49.678;6.560;2022-07-18T13:42:36;38.50;19.70
20091;DHT22;10205;49.678;6.560;2022-07-18T13:45:05;38.50;19.50
20091;DHT22;10205;49.678;6.560;2022-07-18T13:47:33;38.50;19.80
20091;DHT22;10205;49.678;6.560;2022-07-18T13:50:01;38.60;20.30
20091;DHT22;10205;49.678;6.560;2022-07-18T13:52:29;38.70;20.10
20091;DHT22;10205;49.678;6.560;2022-07-18T13:54:56;38.70;20.30
20091;DHT22;10205;49.678;6.560;2022-07-18T13:57:24;38.80;20.50
20091;DHT22;10205;49.678;6.560;2022-07-18T13:59:51;38.80;19.50
20091;DHT22;10205;49.678;6.560;2022-07-18T14:02:18;38.90;19.20
20091;DHT22;10205;49.678;6.560;2022-07-18T14:04:46;38.90;19.50
20091;DHT22;10205;49.678;6.560;2022-07-18T14:07:14;39.00;18.80
20091;DHT22;10205;49.678;6.560;2022-07-18T14:10:00;39.00;18.90
20091;DHT22;10205;49.678;6.560;2022-07-18T14:12:27;39.10;19.20
20091;DHT22;10205;49.678;6.560;2022-07-18T14:14:55;39.10;19.20
20091;DHT22;10205;49.678;6.560;2022-07-18T14:17:22;39.10;19.30
20091;DHT22;10205;49.678;6.560;2022-07-18T14:19:49;39.20;19.00
20091;DHT22;10205;49.678;6.560;2022-07-18T14:22:17;39.20;19.00
20091;DHT22;10205;49.678;6.560;2022-07-18T14:24:45;39.30;18.60
20091;DHT22;10205;49.678;6.560;2022-07-18T14:27:12;39.30;18.90
20091;DHT22;10205;49.678;6.560;2022-07-18T14:29:39;39.40;19.40
20091;DHT22;10205;49.678;6.560;2022-07-18T14:32:07;39.40;18.50
20091;DHT22;10205;49.678;6.560;2022-07-18T14:34:38;39.40;18.70
20091;DHT22;10205;49.678;6.560;2022-07-18T14:37:05;39.50;18.30
20091;DHT22;10205;49.678;6.560;2022-07-18T14:39:35;39.50;18.60
20091;DHT22;10205;49.678;6.560;2022-07-18T14:42:02;39.50;18.40
20091;DHT22;10205;49.678;6.560;2022-07-18T14:44:29;39.50;18.10
20091;DHT22;10205;49.678;6.560;2022-07-18T14:46:56;39.50;18.10
20091;DHT22;10205;49.678;6.560;2022-07-18T14:49:23;39.50;18.10
20091;DHT22;10205;49.678;6.560;2022-07-18T14:51:50;39.60;18.20
20091;DHT22;10205;49.678;6.560;2022-07-18T14:54:18;39.60;17.90
20091;DHT22;10205;49.678;6.560;2022-07-18T14:56:46;39.60;17.80
20091;DHT22;10205;49.678;6.560;2022-07-18T14:59:13;39.60;17.70
20091;DHT22;10205;49.678;6.560;2022-07-18T15:01:40;39.70;17.80
20091;DHT22;10205;49.678;6.560;2022-07-18T15:04:08;39.70;18.80
20091;DHT22;10205;49.678;6.560;2022-07-18T15:06:35;39.70;18.90
20091;DHT22;10205;49.678;6.560;2022-07-18T15:09:02;39.80;18.70
20091;DHT22;10205;49.678;6.560;2022-07-18T15:11:32;39.80;17.60
20091;DHT22;10205;49.678;6.560;2022-07-18T15:14:01;39.80;17.10
20091;DHT22;10205;49.678;6.560;2022-07-18T15:16:28;39.90;17.50
20091;DHT22;10205;49.678;6.560;2022-07-18T15:18:55;39.90;18.10
20091;DHT22;10205;49.678;6.560;2022-07-18T15:21:23;40.00;18.40
20091;DHT22;10205;49.678;6.560;2022-07-18T15:23:50;40.00;17.40
20091;DHT22;10205;49.678;6.560;2022-07-18T15:26:17;40.00;17.50
20091;DHT22;10205;49.678;6.560;2022-07-18T15:28:44;40.00;17.30
20091;DHT22;10205;49.678;6.560;2022-07-18T15:31:13;40.10;17.50
20091;DHT22;10205;49.678;6.560;2022-07-18T15:33:40;40.10;18.60
20091;DHT22;10205;49.678;6.560;2022-07-18T15:36:07;40.20;18.20
20091;DHT22;10205;49.678;6.560;2022-07-18T15:38:35;40.20;18.50
20091;DHT22;10205;49.678;6.560;2022-07-18T15:41:06;40.30;17.70
20091;DHT22;10205;49.678;6.560;2022-07-18T15:43:34;40.40;18.50